Terminal Aerodrome Forecast
Issued by NWS

Home | Current Version | Previous Version | Text Only | Print | Product List | Glossary On
Versions: 1 2 3 4 5 6 7 8 9 10 11 12 13 14 15 16 17 18 19 20 21 22 23 24 25 26 27 28
000
FTAK31 PAFA 281130
TAFASC
TAF
PASC 281130Z 2812/2912 24006KT P6SM -SHSN SCT008 BKN015 OVC025
     FM282100 05008KT 6SM -SN BR SCT008 BKN015 OVC025
     FM290300 06012KT 4SM -SN BR SCT008 BKN015 BKN025=

USA.gov is the U.S. government's official web portal to all federal, state and local government web resources and services.